sensor_id;sensor_type;location;lat;lon;timestamp;temperature;humidity
7934;DHT22;4012;48.896;9.192;2023-11-21T00:00:05;8.60;99.90
7934;DHT22;4012;48.896;9.192;2023-11-21T00:02:38;8.70;99.90
7934;DHT22;4012;48.896;9.192;2023-11-21T00:05:09;8.70;99.90
7934;DHT22;4012;48.896;9.192;2023-11-21T00:07:36;8.70;99.90
7934;DHT22;4012;48.896;9.192;2023-11-21T00:10:01;8.70;99.90
7934;DHT22;4012;48.896;9.192;2023-11-21T00:12:28;8.60;99.90
7934;DHT22;4012;48.896;9.192;2023-11-21T00:14:55;8.70;99.90
7934;DHT22;4012;48.896;9.192;2023-11-21T00:17:20;8.70;99.90
7934;DHT22;4012;48.896;9.192;2023-11-21T00:19:46;8.80;99.90
7934;DHT22;4012;48.896;9.192;2023-11-21T00:22:11;8.80;99.90
7934;DHT22;4012;48.896;9.192;2023-11-21T00:24:37;8.90;99.90
7934;DHT22;4012;48.896;9.192;2023-11-21T00:27:03;8.80;99.90
7934;DHT22;4012;48.896;9.192;2023-11-21T00:29:28;8.90;99.90
7934;DHT22;4012;48.896;9.192;2023-11-21T00:31:54;8.90;99.90
7934;DHT22;4012;48.896;9.192;2023-11-21T00:34:20;8.90;99.90
7934;DHT22;4012;48.896;9.192;2023-11-21T00:36:45;9.00;99.90
7934;DHT22;4012;48.896;9.192;2023-11-21T00:39:11;8.90;99.90
7934;DHT22;4012;48.896;9.192;2023-11-21T00:41:37;9.00;99.90
7934;DHT22;4012;48.896;9.192;2023-11-21T00:44:03;9.10;99.90
7934;DHT22;4012;48.896;9.192;2023-11-21T00:46:29;9.00;99.90
7934;DHT22;4012;48.896;9.192;2023-11-21T00:48:55;9.00;99.90
7934;DHT22;4012;48.896;9.192;2023-11-21T00:51:21;9.00;99.90
7934;DHT22;4012;48.896;9.192;2023-11-21T00:53:47;9.00;99.90
7934;DHT22;4012;48.896;9.192;2023-11-21T00:56:13;9.00;99.90
7934;DHT22;4012;48.896;9.192;2023-11-21T00:58:39;9.00;99.90
7934;DHT22;4012;48.896;9.192;2023-11-21T01:01:09;9.00;99.90
7934;DHT22;4012;48.896;9.192;2023-11-21T01:03:35;9.00;99.90
7934;DHT22;4012;48.896;9.192;2023-11-21T01:06:01;9.10;99.90
7934;DHT22;4012;48.896;9.192;2023-11-21T01:08:26;9.00;99.90
7934;DHT22;4012;48.896;9.192;2023-11-21T01:10:52;9.00;99.90
7934;DHT22;4012;48.896;9.192;2023-11-21T01:13:18;9.00;99.90
7934;DHT22;4012;48.896;9.192;2023-11-21T01:15:43;9.10;99.90
7934;DHT22;4012;48.896;9.192;2023-11-21T01:18:09;9.10;99.90
7934;DHT22;4012;48.896;9.192;2023-11-21T01:20:35;9.10;99.90
7934;DHT22;4012;48.896;9.192;2023-11-21T01:23:00;9.20;99.90
7934;DHT22;4012;48.896;9.192;2023-11-21T01:25:26;9.20;99.90
7934;DHT22;4012;48.896;9.192;2023-11-21T01:27:51;9.30;99.90
7934;DHT22;4012;48.896;9.192;2023-11-21T01:30:17;9.20;99.90
7934;DHT22;4012;48.896;9.192;2023-11-21T01:32:43;9.20;99.90
7934;DHT22;4012;48.896;9.192;2023-11-21T01:35:09;9.20;99.90
7934;DHT22;4012;48.896;9.192;2023-11-21T01:37:38;9.20;99.90
7934;DHT22;4012;48.896;9.192;2023-11-21T01:40:05;9.10;99.90
7934;DHT22;4012;48.896;9.192;2023-11-21T01:42:35;9.20;99.90
7934;DHT22;4012;48.896;9.192;2023-11-21T01:45:01;9.20;99.90
7934;DHT22;4012;48.896;9.192;2023-11-21T01:47:31;9.20;99.90
7934;DHT22;4012;48.896;9.192;2023-11-21T01:49:57;9.20;99.90
7934;DHT22;4012;48.896;9.192;2023-11-21T01:52:23;9.20;99.90
7934;DHT22;4012;48.896;9.192;2023-11-21T01:54:50;9.20;99.90
7934;DHT22;4012;48.896;9.192;2023-11-21T01:57:15;9.20;99.90
7934;DHT22;4012;48.896;9.192;2023-11-21T01:59:41;9.20;99.90
7934;DHT22;4012;48.896;9.192;2023-11-21T02:02:08;9.10;99.90
7934;DHT22;4012;48.896;9.192;2023-11-21T02:04:35;9.10;99.90
7934;DHT22;4012;48.896;9.192;2023-11-21T02:07:02;9.20;99.90
7934;DHT22;4012;48.896;9.192;2023-11-21T02:09:30;9.20;99.90
7934;DHT22;4012;48.896;9.192;2023-11-21T02:11:57;9.10;99.90
7934;DHT22;4012;48.896;9.192;2023-11-21T02:14:27;9.10;99.90
7934;DHT22;4012;48.896;9.192;2023-11-21T02:16:54;9.10;99.90
7934;DHT22;4012;48.896;9.192;2023-11-21T02:19:21;9.20;99.90
7934;DHT22;4012;48.896;9.192;2023-11-21T02:21:56;9.20;99.90
7934;DHT22;4012;48.896;9.192;2023-11-21T02:24:25;9.20;99.90
7934;DHT22;4012;48.896;9.192;2023-11-21T02:26:51;9.10;99.90
7934;DHT22;4012;48.896;9.192;2023-11-21T02:29:17;9.30;99.90
7934;DHT22;4012;48.896;9.192;2023-11-21T02:31:44;9.20;99.90
7934;DHT22;4012;48.896;9.192;2023-11-21T02:34:17;9.20;99.90
7934;DHT22;4012;48.896;9.192;2023-11-21T02:36:46;9.10;99.90
7934;DHT22;4012;48.896;9.192;2023-11-21T02:39:12;9.20;99.90
7934;DHT22;4012;48.896;9.192;2023-11-21T02:41:38;9.20;99.90
7934;DHT22;4012;48.896;9.192;2023-11-21T02:44:05;9.20;99.90
7934;DHT22;4012;48.896;9.192;2023-11-21T02:46:32;9.20;99.90
7934;DHT22;4012;48.896;9.192;2023-11-21T02:49:00;9.30;99.90
7934;DHT22;4012;48.896;9.192;2023-11-21T02:51:25;9.30;99.90
7934;DHT22;4012;48.896;9.192;2023-11-21T02:53:51;9.30;99.90
7934;DHT22;4012;48.896;9.192;2023-11-21T02:56:17;9.30;99.90
7934;DHT22;4012;48.896;9.192;2023-11-21T02:58:43;9.30;99.90
7934;DHT22;4012;48.896;9.192;2023-11-21T03:01:09;9.40;99.90
7934;DHT22;4012;48.896;9.192;2023-11-21T03:03:37;9.30;99.90
7934;DHT22;4012;48.896;9.192;2023-11-21T03:06:06;9.30;99.90
7934;DHT22;4012;48.896;9.192;2023-11-21T03:08:32;9.20;99.90
7934;DHT22;4012;48.896;9.192;2023-11-21T03:10:58;9.20;99.90
7934;DHT22;4012;48.896;9.192;2023-11-21T03:13:24;9.20;99.90
7934;DHT22;4012;48.896;9.192;2023-11-21T03:15:49;9.20;99.90
7934;DHT22;4012;48.896;9.192;2023-11-21T03:18:15;9.20;99.90
7934;DHT22;4012;48.896;9.192;2023-11-21T03:20:40;9.20;99.90
7934;DHT22;4012;48.896;9.192;2023-11-21T03:23:06;9.20;99.90
7934;DHT22;4012;48.896;9.192;2023-11-21T03:25:32;9.20;99.90
7934;DHT22;4012;48.896;9.192;2023-11-21T03:27:58;9.10;99.90
7934;DHT22;4012;48.896;9.192;2023-11-21T03:30:23;9.20;99.90
7934;DHT22;4012;48.896;9.192;2023-11-21T03:32:49;9.30;99.90
7934;DHT22;4012;48.896;9.192;2023-11-21T03:35:14;9.30;99.90
7934;DHT22;4012;48.896;9.192;2023-11-21T03:37:40;9.20;99.90
7934;DHT22;4012;48.896;9.192;2023-11-21T03:40:07;8.80;99.90
7934;DHT22;4012;48.896;9.192;2023-11-21T03:42:34;9.20;99.90
7934;DHT22;4012;48.896;9.192;2023-11-21T03:45:00;9.10;99.90
7934;DHT22;4012;48.896;9.192;2023-11-21T03:47:28;9.10;99.90
7934;DHT22;4012;48.896;9.192;2023-11-21T03:49:54;9.10;99.90
7934;DHT22;4012;48.896;9.192;2023-11-21T03:52:19;9.10;99.90
7934;DHT22;4012;48.896;9.192;2023-11-21T03:54:55;9.20;99.90
7934;DHT22;4012;48.896;9.192;2023-11-21T03:57:23;9.10;99.90
7934;DHT22;4012;48.896;9.192;2023-11-21T03:59:49;9.10;99.90
7934;DHT22;4012;48.896;9.192;2023-11-21T04:02:20;9.10;99.90
7934;DHT22;4012;48.896;9.192;2023-11-21T04:04:49;9.10;99.90
7934;DHT22;4012;48.896;9.192;2023-11-21T04:07:26;9.10;99.90
7934;DHT22;4012;48.896;9.192;2023-11-21T04:09:55;9.00;99.90
7934;DHT22;4012;48.896;9.192;2023-11-21T04:12:20;9.00;99.90
7934;DHT22;4012;48.896;9.192;2023-11-21T04:14:49;9.00;99.90
7934;DHT22;4012;48.896;9.192;2023-11-21T04:17:18;9.10;99.90
7934;DHT22;4012;48.896;9.192;2023-11-21T04:19:44;9.10;99.90
7934;DHT22;4012;48.896;9.192;2023-11-21T04:22:09;9.10;99.90
7934;DHT22;4012;48.896;9.192;2023-11-21T04:24:35;9.10;99.90
7934;DHT22;4012;48.896;9.192;2023-11-21T04:27:01;9.00;99.90
7934;DHT22;4012;48.896;9.192;2023-11-21T04:29:28;9.00;99.90
7934;DHT22;4012;48.896;9.192;2023-11-21T04:31:54;9.00;99.90
7934;DHT22;4012;48.896;9.192;2023-11-21T04:34:19;8.90;99.90
7934;DHT22;4012;48.896;9.192;2023-11-21T04:36:45;8.80;99.90
7934;DHT22;4012;48.896;9.192;2023-11-21T04:39:10;8.90;99.90
7934;DHT22;4012;48.896;9.192;2023-11-21T04:41:37;8.80;99.90
7934;DHT22;4012;48.896;9.192;2023-11-21T04:44:05;8.80;99.90
7934;DHT22;4012;48.896;9.192;2023-11-21T04:46:31;8.80;99.90
7934;DHT22;4012;48.896;9.192;2023-11-21T04:48:57;8.80;99.90
7934;DHT22;4012;48.896;9.192;2023-11-21T04:51:23;8.80;99.90
7934;DHT22;4012;48.896;9.192;2023-11-21T04:53:49;8.70;99.90
7934;DHT22;4012;48.896;9.192;2023-11-21T04:56:14;8.80;99.90
7934;DHT22;4012;48.896;9.192;2023-11-21T04:58:41;8.90;99.90
7934;DHT22;4012;48.896;9.192;2023-11-21T05:01:07;8.80;99.90
7934;DHT22;4012;48.896;9.192;2023-11-21T05:03:33;8.80;99.90
7934;DHT22;4012;48.896;9.192;2023-11-21T05:06:00;8.80;99.90
7934;DHT22;4012;48.896;9.192;2023-11-21T05:08:25;8.80;99.90
7934;DHT22;4012;48.896;9.192;2023-11-21T05:10:52;8.80;99.90
7934;DHT22;4012;48.896;9.192;2023-11-21T05:13:17;8.80;99.90
7934;DHT22;4012;48.896;9.192;2023-11-21T05:15:44;8.90;99.90
7934;DHT22;4012;48.896;9.192;2023-11-21T05:18:10;8.80;99.90
7934;DHT22;4012;48.896;9.192;2023-11-21T05:20:36;8.90;99.90
7934;DHT22;4012;48.896;9.192;2023-11-21T05:23:02;8.80;99.90
7934;DHT22;4012;48.896;9.192;2023-11-21T05:25:28;8.80;99.90
7934;DHT22;4012;48.896;9.192;2023-11-21T05:27:53;8.80;99.90
7934;DHT22;4012;48.896;9.192;2023-11-21T05:30:24;8.80;99.90
7934;DHT22;4012;48.896;9.192;2023-11-21T05:32:50;8.80;99.90
7934;DHT22;4012;48.896;9.192;2023-11-21T05:35:15;8.80;99.90
7934;DHT22;4012;48.896;9.192;2023-11-21T05:37:42;8.90;99.90
7934;DHT22;4012;48.896;9.192;2023-11-21T05:40:08;8.90;99.90
7934;DHT22;4012;48.896;9.192;2023-11-21T05:42:34;8.90;99.90
7934;DHT22;4012;48.896;9.192;2023-11-21T05:45:00;8.90;99.90
7934;DHT22;4012;48.896;9.192;2023-11-21T05:47:37;8.90;99.90
7934;DHT22;4012;48.896;9.192;2023-11-21T05:50:04;8.90;99.90
7934;DHT22;4012;48.896;9.192;2023-11-21T05:52:31;9.00;99.90
7934;DHT22;4012;48.896;9.192;2023-11-21T05:54:57;9.00;99.90
7934;DHT22;4012;48.896;9.192;2023-11-21T05:57:23;8.90;99.90
7934;DHT22;4012;48.896;9.192;2023-11-21T05:59:49;8.90;99.90
7934;DHT22;4012;48.896;9.192;2023-11-21T06:02:14;8.90;99.90
7934;DHT22;4012;48.896;9.192;2023-11-21T06:04:40;8.90;99.90
7934;DHT22;4012;48.896;9.192;2023-11-21T06:07:05;8.90;99.90
7934;DHT22;4012;48.896;9.192;2023-11-21T06:09:31;8.90;99.90
7934;DHT22;4012;48.896;9.192;2023-11-21T06:11:57;8.90;99.90
7934;DHT22;4012;48.896;9.192;2023-11-21T06:14:22;8.90;99.90
7934;DHT22;4012;48.896;9.192;2023-11-21T06:16:48;8.90;99.90
7934;DHT22;4012;48.896;9.192;2023-11-21T06:19:16;8.90;99.90
7934;DHT22;4012;48.896;9.192;2023-11-21T06:21:45;8.90;99.90
7934;DHT22;4012;48.896;9.192;2023-11-21T06:24:11;8.90;99.90
7934;DHT22;4012;48.896;9.192;2023-11-21T06:26:36;8.80;99.90
7934;DHT22;4012;48.896;9.192;2023-11-21T06:29:02;8.80;99.90
7934;DHT22;4012;48.896;9.192;2023-11-21T06:31:29;8.80;99.90
7934;DHT22;4012;48.896;9.192;2023-11-21T06:33:55;8.80;99.90
7934;DHT22;4012;48.896;9.192;2023-11-21T06:36:21;8.80;99.90
7934;DHT22;4012;48.896;9.192;2023-11-21T06:38:46;8.90;99.90
7934;DHT22;4012;48.896;9.192;2023-11-21T06:41:12;8.90;99.90
7934;DHT22;4012;48.896;9.192;2023-11-21T06:43:41;8.90;99.90
7934;DHT22;4012;48.896;9.192;2023-11-21T06:46:06;8.90;99.90
7934;DHT22;4012;48.896;9.192;2023-11-21T06:48:32;8.90;99.90
7934;DHT22;4012;48.896;9.192;2023-11-21T06:50:57;8.90;99.90
7934;DHT22;4012;48.896;9.192;2023-11-21T06:53:23;9.00;99.90
7934;DHT22;4012;48.896;9.192;2023-11-21T06:55:49;9.00;99.90
7934;DHT22;4012;48.896;9.192;2023-11-21T06:58:14;9.00;99.90
7934;DHT22;4012;48.896;9.192;2023-11-21T07:00:40;9.00;99.90
7934;DHT22;4012;48.896;9.192;2023-11-21T07:03:05;9.00;99.90
7934;DHT22;4012;48.896;9.192;2023-11-21T07:05:31;9.10;99.90
7934;DHT22;4012;48.896;9.192;2023-11-21T07:07:57;9.10;99.90
7934;DHT22;4012;48.896;9.192;2023-11-21T07:10:25;9.10;99.90
7934;DHT22;4012;48.896;9.192;2023-11-21T07:12:51;9.10;99.90
7934;DHT22;4012;48.896;9.192;2023-11-21T07:15:17;9.10;99.90
7934;DHT22;4012;48.896;9.192;2023-11-21T07:17:44;9.10;99.90
7934;DHT22;4012;48.896;9.192;2023-11-21T07:20:12;9.20;99.90
7934;DHT22;4012;48.896;9.192;2023-11-21T07:22:37;9.20;99.90
7934;DHT22;4012;48.896;9.192;2023-11-21T07:25:03;9.20;99.90
7934;DHT22;4012;48.896;9.192;2023-11-21T07:27:29;9.10;99.90
7934;DHT22;4012;48.896;9.192;2023-11-21T07:29:55;9.00;99.90
7934;DHT22;4012;48.896;9.192;2023-11-21T07:32:20;9.20;99.90
7934;DHT22;4012;48.896;9.192;2023-11-21T07:34:46;9.20;99.90
7934;DHT22;4012;48.896;9.192;2023-11-21T07:37:11;9.30;99.90
7934;DHT22;4012;48.896;9.192;2023-11-21T07:39:37;9.30;99.90
7934;DHT22;4012;48.896;9.192;2023-11-21T07:42:07;9.40;99.90
7934;DHT22;4012;48.896;9.192;2023-11-21T07:44:32;9.40;99.90
7934;DHT22;4012;48.896;9.192;2023-11-21T07:46:58;9.40;99.90
7934;DHT22;4012;48.896;9.192;2023-11-21T07:49:24;9.50;99.90
7934;DHT22;4012;48.896;9.192;2023-11-21T07:51:50;9.50;99.90
7934;DHT22;4012;48.896;9.192;2023-11-21T07:54:16;9.50;99.90
7934;DHT22;4012;48.896;9.192;2023-11-21T07:56:41;9.50;99.90
7934;DHT22;4012;48.896;9.192;2023-11-21T07:59:08;9.60;99.90
7934;DHT22;4012;48.896;9.192;2023-11-21T08:01:33;9.60;99.90
7934;DHT22;4012;48.896;9.192;2023-11-21T08:03:59;9.70;99.90
7934;DHT22;4012;48.896;9.192;2023-11-21T08:06:29;9.80;99.90
7934;DHT22;4012;48.896;9.192;2023-11-21T08:08:55;9.80;99.90
7934;DHT22;4012;48.896;9.192;2023-11-21T08:11:20;9.80;99.90
7934;DHT22;4012;48.896;9.192;2023-11-21T08:13:46;9.70;99.90
7934;DHT22;4012;48.896;9.192;2023-11-21T08:16:12;9.70;99.90
7934;DHT22;4012;48.896;9.192;2023-11-21T08:18:38;9.80;99.90
7934;DHT22;4012;48.896;9.192;2023-11-21T08:21:05;9.80;99.90
7934;DHT22;4012;48.896;9.192;2023-11-21T08:23:31;10.00;99.90
7934;DHT22;4012;48.896;9.192;2023-11-21T08:25:57;10.10;99.90
7934;DHT22;4012;48.896;9.192;2023-11-21T08:28:22;10.20;99.90
7934;DHT22;4012;48.896;9.192;2023-11-21T08:30:51;10.50;99.90
7934;DHT22;4012;48.896;9.192;2023-11-21T08:33:17;10.50;99.90
7934;DHT22;4012;48.896;9.192;2023-11-21T08:35:43;10.40;99.90
7934;DHT22;4012;48.896;9.192;2023-11-21T08:38:08;10.40;99.90
7934;DHT22;4012;48.896;9.192;2023-11-21T08:40:35;10.30;99.90
7934;DHT22;4012;48.896;9.192;2023-11-21T08:43:01;10.20;99.90
7934;DHT22;4012;48.896;9.192;2023-11-21T08:45:30;10.20;99.90
7934;DHT22;4012;48.896;9.192;2023-11-21T08:47:55;10.30;99.90
7934;DHT22;4012;48.896;9.192;2023-11-21T08:50:21;10.50;99.90
7934;DHT22;4012;48.896;9.192;2023-11-21T08:52:48;10.70;99.90
7934;DHT22;4012;48.896;9.192;2023-11-21T08:55:13;10.80;99.90
7934;DHT22;4012;48.896;9.192;2023-11-21T08:57:40;10.70;99.90
7934;DHT22;4012;48.896;9.192;2023-11-21T09:00:07;10.80;99.90
7934;DHT22;4012;48.896;9.192;2023-11-21T09:02:37;10.70;99.90
7934;DHT22;4012;48.896;9.192;2023-11-21T09:05:04;10.80;99.90
7934;DHT22;4012;48.896;9.192;2023-11-21T09:07:30;10.90;99.90
7934;DHT22;4012;48.896;9.192;2023-11-21T09:09:56;10.80;99.90
7934;DHT22;4012;48.896;9.192;2023-11-21T09:12:21;10.70;99.90
7934;DHT22;4012;48.896;9.192;2023-11-21T09:14:47;10.60;99.90
7934;DHT22;4012;48.896;9.192;2023-11-21T09:17:13;10.80;99.90
7934;DHT22;4012;48.896;9.192;2023-11-21T09:19:40;10.90;99.90
7934;DHT22;4012;48.896;9.192;2023-11-21T09:22:06;10.60;99.90
7934;DHT22;4012;48.896;9.192;2023-11-21T09:24:32;10.60;99.90
7934;DHT22;4012;48.896;9.192;2023-11-21T09:26:58;10.60;99.90
7934;DHT22;4012;48.896;9.192;2023-11-21T09:29:26;10.60;99.90
7934;DHT22;4012;48.896;9.192;2023-11-21T09:31:51;10.70;99.90
7934;DHT22;4012;48.896;9.192;2023-11-21T09:34:17;10.70;99.90
7934;DHT22;4012;48.896;9.192;2023-11-21T09:36:46;10.70;99.90
7934;DHT22;4012;48.896;9.192;2023-11-21T09:39:11;10.80;99.90
7934;DHT22;4012;48.896;9.192;2023-11-21T09:41:54;10.60;99.90
7934;DHT22;4012;48.896;9.192;2023-11-21T09:44:48;10.80;99.90
7934;DHT22;4012;48.896;9.192;2023-11-21T09:47:17;10.60;99.90
7934;DHT22;4012;48.896;9.192;2023-11-21T09:49:47;10.30;99.90
7934;DHT22;4012;48.896;9.192;2023-11-21T09:52:23;10.60;99.90
7934;DHT22;4012;48.896;9.192;2023-11-21T09:54:51;10.70;99.90
7934;DHT22;4012;48.896;9.192;2023-11-21T09:57:20;10.70;99.90
7934;DHT22;4012;48.896;9.192;2023-11-21T09:59:47;10.50;99.90
7934;DHT22;4012;48.896;9.192;2023-11-21T10:02:17;10.30;99.90
7934;DHT22;4012;48.896;9.192;2023-11-21T10:04:45;10.10;99.90
7934;DHT22;4012;48.896;9.192;2023-11-21T10:07:12;10.00;99.90
7934;DHT22;4012;48.896;9.192;2023-11-21T10:09:40;9.90;99.90
7934;DHT22;4012;48.896;9.192;2023-11-21T10:12:08;9.90;99.90
7934;DHT22;4012;48.896;9.192;2023-11-21T10:14:37;9.90;99.90
7934;DHT22;4012;48.896;9.192;2023-11-21T10:17:06;10.00;99.90
7934;DHT22;4012;48.896;9.192;2023-11-21T10:19:35;9.90;99.90
7934;DHT22;4012;48.896;9.192;2023-11-21T10:22:02;10.00;99.90
7934;DHT22;4012;48.896;9.192;2023-11-21T10:24:28;9.70;99.90
7934;DHT22;4012;48.896;9.192;2023-11-21T10:26:54;9.70;99.90
7934;DHT22;4012;48.896;9.192;2023-11-21T10:29:20;9.80;99.90
7934;DHT22;4012;48.896;9.192;2023-11-21T10:31:50;10.00;99.90
7934;DHT22;4012;48.896;9.192;2023-11-21T10:34:18;10.30;99.90
7934;DHT22;4012;48.896;9.192;2023-11-21T10:36:44;10.10;99.90
7934;DHT22;4012;48.896;9.192;2023-11-21T10:39:14;10.20;99.90
7934;DHT22;4012;48.896;9.192;2023-11-21T10:41:46;10.30;99.90
7934;DHT22;4012;48.896;9.192;2023-11-21T10:44:19;10.40;99.90
7934;DHT22;4012;48.896;9.192;2023-11-21T10:46:50;10.50;99.90
7934;DHT22;4012;48.896;9.192;2023-11-21T10:49:20;10.60;99.90
7934;DHT22;4012;48.896;9.192;2023-11-21T10:51:46;10.80;99.90
7934;DHT22;4012;48.896;9.192;2023-11-21T10:54:20;10.70;99.90
7934;DHT22;4012;48.896;9.192;2023-11-21T10:56:48;11.00;99.90
7934;DHT22;4012;48.896;9.192;2023-11-21T10:59:17;11.20;99.90
7934;DHT22;4012;48.896;9.192;2023-11-21T11:01:45;11.00;99.90
7934;DHT22;4012;48.896;9.192;2023-11-21T11:04:12;10.80;99.90
7934;DHT22;4012;48.896;9.192;2023-11-21T11:07:00;10.90;99.90
7934;DHT22;4012;48.896;9.192;2023-11-21T11:09:29;11.10;99.90
7934;DHT22;4012;48.896;9.192;2023-11-21T11:11:55;11.10;99.90
7934;DHT22;4012;48.896;9.192;2023-11-21T11:14:21;11.10;99.90
7934;DHT22;4012;48.896;9.192;2023-11-21T11:16:53;11.20;99.90
7934;DHT22;4012;48.896;9.192;2023-11-21T11:19:19;11.20;99.90
7934;DHT22;4012;48.896;9.192;2023-11-21T11:24:55;11.00;99.90
7934;DHT22;4012;48.896;9.192;2023-11-21T11:33:04;10.80;99.90
7934;DHT22;4012;48.896;9.192;2023-11-21T11:38:04;10.80;99.90
7934;DHT22;4012;48.896;9.192;2023-11-21T11:40:45;10.70;99.90
7934;DHT22;4012;48.896;9.192;2023-11-21T11:43:11;10.70;99.90
7934;DHT22;4012;48.896;9.192;2023-11-21T11:45:38;10.70;99.90
7934;DHT22;4012;48.896;9.192;2023-11-21T11:48:08;10.50;99.90
7934;DHT22;4012;48.896;9.192;2023-11-21T11:50:34;10.40;99.90
7934;DHT22;4012;48.896;9.192;2023-11-21T11:53:13;10.40;99.90
7934;DHT22;4012;48.896;9.192;2023-11-21T11:55:39;10.40;99.90
7934;DHT22;4012;48.896;9.192;2023-11-21T11:58:08;10.40;99.90
7934;DHT22;4012;48.896;9.192;2023-11-21T12:00:35;10.50;99.90
7934;DHT22;4012;48.896;9.192;2023-11-21T12:03:04;10.50;99.90
7934;DHT22;4012;48.896;9.192;2023-11-21T12:05:32;10.70;99.90
7934;DHT22;4012;48.896;9.192;2023-11-21T12:08:05;10.80;99.90
7934;DHT22;4012;48.896;9.192;2023-11-21T12:10:35;10.90;99.90
7934;DHT22;4012;48.896;9.192;2023-11-21T12:13:02;11.00;99.90
7934;DHT22;4012;48.896;9.192;2023-11-21T12:15:28;11.20;99.90
7934;DHT22;4012;48.896;9.192;2023-11-21T12:17:57;11.50;99.90
7934;DHT22;4012;48.896;9.192;2023-11-21T12:20:24;11.80;99.90
7934;DHT22;4012;48.896;9.192;2023-11-21T12:22:51;11.90;99.90
7934;DHT22;4012;48.896;9.192;2023-11-21T12:25:18;11.80;99.90
7934;DHT22;4012;48.896;9.192;2023-11-21T12:27:50;11.80;99.90
7934;DHT22;4012;48.896;9.192;2023-11-21T12:30:18;11.50;99.90
7934;DHT22;4012;48.896;9.192;2023-11-21T12:32:44;11.30;99.90
7934;DHT22;4012;48.896;9.192;2023-11-21T12:35:13;11.20;99.90
7934;DHT22;4012;48.896;9.192;2023-11-21T12:37:40;11.10;99.90
7934;DHT22;4012;48.896;9.192;2023-11-21T12:40:07;11.00;99.90
7934;DHT22;4012;48.896;9.192;2023-11-21T12:42:41;10.90;99.90
7934;DHT22;4012;48.896;9.192;2023-11-21T12:45:18;11.00;99.90
7934;DHT22;4012;48.896;9.192;2023-11-21T12:47:44;10.90;99.90
7934;DHT22;4012;48.896;9.192;2023-11-21T12:50:12;10.50;99.90
7934;DHT22;4012;48.896;9.192;2023-11-21T12:52:46;10.30;99.90
7934;DHT22;4012;48.896;9.192;2023-11-21T12:55:22;10.20;99.90
7934;DHT22;4012;48.896;9.192;2023-11-21T12:57:51;10.00;99.90
7934;DHT22;4012;48.896;9.192;2023-11-21T13:00:18;9.90;99.90
7934;DHT22;4012;48.896;9.192;2023-11-21T13:02:55;10.00;99.90
7934;DHT22;4012;48.896;9.192;2023-11-21T13:05:32;10.00;99.90
7934;DHT22;4012;48.896;9.192;2023-11-21T13:08:00;10.00;99.90
7934;DHT22;4012;48.896;9.192;2023-11-21T13:10:32;10.00;99.90
7934;DHT22;4012;48.896;9.192;2023-11-21T13:13:01;10.00;99.90
7934;DHT22;4012;48.896;9.192;2023-11-21T13:15:30;10.10;99.90
7934;DHT22;4012;48.896;9.192;2023-11-21T13:18:00;10.00;99.90
7934;DHT22;4012;48.896;9.192;2023-11-21T13:20:26;9.90;99.90
7934;DHT22;4012;48.896;9.192;2023-11-21T13:22:55;10.00;99.90
7934;DHT22;4012;48.896;9.192;2023-11-21T13:25:31;9.90;99.90
7934;DHT22;4012;48.896;9.192;2023-11-21T13:28:00;10.10;99.90
7934;DHT22;4012;48.896;9.192;2023-11-21T13:30:28;10.10;99.90
7934;DHT22;4012;48.896;9.192;2023-11-21T13:33:03;10.20;99.90
7934;DHT22;4012;48.896;9.192;2023-11-21T13:35:37;10.10;99.90
7934;DHT22;4012;48.896;9.192;2023-11-21T13:38:08;9.90;99.90
7934;DHT22;4012;48.896;9.192;2023-11-21T13:40:36;10.00;99.90
7934;DHT22;4012;48.896;9.192;2023-11-21T13:43:15;10.10;99.90
7934;DHT22;4012;48.896;9.192;2023-11-21T13:45:42;10.10;99.90
7934;DHT22;4012;48.896;9.192;2023-11-21T13:48:09;10.20;99.90
7934;DHT22;4012;48.896;9.192;2023-11-21T13:50:42;10.10;99.90
7934;DHT22;4012;48.896;9.192;2023-11-21T13:53:14;10.10;99.90
7934;DHT22;4012;48.896;9.192;2023-11-21T13:55:50;10.00;99.90
7934;DHT22;4012;48.896;9.192;2023-11-21T13:58:16;10.00;99.90
7934;DHT22;4012;48.896;9.192;2023-11-21T14:00:49;10.10;99.90
7934;DHT22;4012;48.896;9.192;2023-11-21T14:03:22;10.00;99.90
7934;DHT22;4012;48.896;9.192;2023-11-21T14:05:48;10.00;99.90
7934;DHT22;4012;48.896;9.192;2023-11-21T14:08:20;10.00;99.90
7934;DHT22;4012;48.896;9.192;2023-11-21T14:10:50;9.90;99.90
7934;DHT22;4012;48.896;9.192;2023-11-21T14:13:19;9.90;99.90
7934;DHT22;4012;48.896;9.192;2023-11-21T14:15:48;10.00;99.90
7934;DHT22;4012;48.896;9.192;2023-11-21T14:18:16;10.00;99.90
7934;DHT22;4012;48.896;9.192;2023-11-21T14:20:43;10.10;99.90
7934;DHT22;4012;48.896;9.192;2023-11-21T14:23:10;10.10;99.90
7934;DHT22;4012;48.896;9.192;2023-11-21T14:25:37;10.20;99.90
7934;DHT22;4012;48.896;9.192;2023-11-21T14:28:06;10.20;99.90
7934;DHT22;4012;48.896;9.192;2023-11-21T14:30:34;10.20;99.90
7934;DHT22;4012;48.896;9.192;2023-11-21T14:33:02;10.20;99.90
7934;DHT22;4012;48.896;9.192;2023-11-21T14:35:28;10.20;99.90
7934;DHT22;4012;48.896;9.192;2023-11-21T14:38:00;10.10;99.90
7934;DHT22;4012;48.896;9.192;2023-11-21T14:40:28;10.00;99.90
7934;DHT22;4012;48.896;9.192;2023-11-21T14:42:59;10.00;99.90
7934;DHT22;4012;48.896;9.192;2023-11-21T14:45:25;10.00;99.90
7934;DHT22;4012;48.896;9.192;2023-11-21T14:47:51;10.00;99.90
7934;DHT22;4012;48.896;9.192;2023-11-21T14:50:33;10.00;99.90
7934;DHT22;4012;48.896;9.192;2023-11-21T14:53:16;10.00;99.90
7934;DHT22;4012;48.896;9.192;2023-11-21T14:55:54;10.10;99.90
7934;DHT22;4012;48.896;9.192;2023-11-21T14:58:23;9.90;99.90
7934;DHT22;4012;48.896;9.192;2023-11-21T15:00:58;10.00;99.90
7934;DHT22;4012;48.896;9.192;2023-11-21T15:03:25;9.90;99.90
7934;DHT22;4012;48.896;9.192;2023-11-21T15:05:57;9.90;99.90
7934;DHT22;4012;48.896;9.192;2023-11-21T15:08:23;9.80;99.90
7934;DHT22;4012;48.896;9.192;2023-11-21T15:10:55;9.80;99.90
7934;DHT22;4012;48.896;9.192;2023-11-21T15:13:21;9.70;99.90
7934;DHT22;4012;48.896;9.192;2023-11-21T15:15:48;9.70;99.90
7934;DHT22;4012;48.896;9.192;2023-11-21T15:18:14;9.70;99.90
7934;DHT22;4012;48.896;9.192;2023-11-21T15:20:40;9.70;99.90
7934;DHT22;4012;48.896;9.192;2023-11-21T15:23:07;9.70;99.90
7934;DHT22;4012;48.896;9.192;2023-11-21T15:25:33;9.70;99.90
7934;DHT22;4012;48.896;9.192;2023-11-21T15:28:00;9.70;99.90
7934;DHT22;4012;48.896;9.192;2023-11-21T15:30:26;9.70;99.90
7934;DHT22;4012;48.896;9.192;2023-11-21T15:32:52;9.70;99.90
7934;DHT22;4012;48.896;9.192;2023-11-21T15:35:20;9.60;99.90
7934;DHT22;4012;48.896;9.192;2023-11-21T15:37:46;9.60;99.90
7934;DHT22;4012;48.896;9.192;2023-11-21T15:40:11;9.70;99.90
7934;DHT22;4012;48.896;9.192;2023-11-21T15:42:40;9.60;99.90
7934;DHT22;4012;48.896;9.192;2023-11-21T15:45:06;9.60;99.90
7934;DHT22;4012;48.896;9.192;2023-11-21T15:47:33;9.60;99.90
7934;DHT22;4012;48.896;9.192;2023-11-21T15:49:59;9.60;99.90
7934;DHT22;4012;48.896;9.192;2023-11-21T15:52:25;9.50;99.90
7934;DHT22;4012;48.896;9.192;2023-11-21T15:54:50;9.50;99.90
7934;DHT22;4012;48.896;9.192;2023-11-21T15:57:16;9.50;99.90
7934;DHT22;4012;48.896;9.192;2023-11-21T15:59:43;9.50;99.90
7934;DHT22;4012;48.896;9.192;2023-11-21T16:02:10;9.60;99.90
7934;DHT22;4012;48.896;9.192;2023-11-21T16:04:36;9.50;99.90
7934;DHT22;4012;48.896;9.192;2023-11-21T16:07:06;9.50;99.90
7934;DHT22;4012;48.896;9.192;2023-11-21T16:09:33;9.50;99.90
7934;DHT22;4012;48.896;9.192;2023-11-21T16:12:04;9.40;99.90
7934;DHT22;4012;48.896;9.192;2023-11-21T16:14:34;9.40;99.90
7934;DHT22;4012;48.896;9.192;2023-11-21T16:17:02;9.30;99.90
7934;DHT22;4012;48.896;9.192;2023-11-21T16:19:42;9.30;99.90
7934;DHT22;4012;48.896;9.192;2023-11-21T16:22:12;9.20;99.90
7934;DHT22;4012;48.896;9.192;2023-11-21T16:24:37;9.10;99.90